sensor_id;sensor_type;location;lat;lon;timestamp;P1;durP1;ratioP1;P2;durP2;ratioP2
73150;SDS011;61354;50.758;6.106;2023-11-19T00:02:12;0.50;;;0.50;;
73150;SDS011;61354;50.758;6.106;2023-11-19T00:04:37;0.82;;;0.60;;
73150;SDS011;61354;50.758;6.106;2023-11-19T00:07:06;1.02;;;0.40;;
73150;SDS011;61354;50.758;6.106;2023-11-19T00:09:33;0.57;;;0.57;;
73150;SDS011;61354;50.758;6.106;2023-11-19T00:11:59;0.65;;;0.50;;
73150;SDS011;61354;50.758;6.106;2023-11-19T00:14:25;0.57;;;0.57;;
73150;SDS011;61354;50.758;6.106;2023-11-19T00:16:51;0.40;;;0.40;;
73150;SDS011;61354;50.758;6.106;2023-11-19T00:19:17;0.40;;;0.40;;
73150;SDS011;61354;50.758;6.106;2023-11-19T00:21:42;0.75;;;0.50;;
73150;SDS011;61354;50.758;6.106;2023-11-19T00:24:08;0.60;;;0.60;;
73150;SDS011;61354;50.758;6.106;2023-11-19T00:26:34;2.80;;;1.15;;
73150;SDS011;61354;50.758;6.106;2023-11-19T00:28:59;0.63;;;0.50;;
73150;SDS011;61354;50.758;6.106;2023-11-19T00:31:25;1.13;;;0.73;;
73150;SDS011;61354;50.758;6.106;2023-11-19T00:33:54;0.80;;;0.60;;
73150;SDS011;61354;50.758;6.106;2023-11-19T00:36:19;1.90;;;0.70;;
73150;SDS011;61354;50.758;6.106;2023-11-19T00:38:45;0.55;;;0.55;;
73150;SDS011;61354;50.758;6.106;2023-11-19T00:41:11;1.17;;;0.80;;
73150;SDS011;61354;50.758;6.106;2023-11-19T00:43:36;1.05;;;0.90;;
73150;SDS011;61354;50.758;6.106;2023-11-19T00:46:02;1.02;;;0.70;;
73150;SDS011;61354;50.758;6.106;2023-11-19T00:48:29;1.25;;;1.00;;
73150;SDS011;61354;50.758;6.106;2023-11-19T00:50:55;1.50;;;0.60;;
73150;SDS011;61354;50.758;6.106;2023-11-19T00:53:20;0.98;;;0.60;;
73150;SDS011;61354;50.758;6.106;2023-11-19T00:55:46;2.13;;;0.80;;
73150;SDS011;61354;50.758;6.106;2023-11-19T00:58:12;1.88;;;0.80;;
73150;SDS011;61354;50.758;6.106;2023-11-19T01:00:37;2.15;;;0.82;;
73150;SDS011;61354;50.758;6.106;2023-11-19T01:03:03;1.40;;;0.90;;
73150;SDS011;61354;50.758;6.106;2023-11-19T01:05:28;1.60;;;0.90;;
73150;SDS011;61354;50.758;6.106;2023-11-19T01:07:54;1.10;;;0.70;;
73150;SDS011;61354;50.758;6.106;2023-11-19T01:10:20;1.45;;;0.90;;
73150;SDS011;61354;50.758;6.106;2023-11-19T01:12:45;1.55;;;0.70;;
73150;SDS011;61354;50.758;6.106;2023-11-19T01:15:11;0.70;;;0.70;;
73150;SDS011;61354;50.758;6.106;2023-11-19T01:17:38;1.58;;;0.80;;
73150;SDS011;61354;50.758;6.106;2023-11-19T01:20:04;0.93;;;0.57;;
73150;SDS011;61354;50.758;6.106;2023-11-19T01:22:31;1.15;;;0.82;;
73150;SDS011;61354;50.758;6.106;2023-11-19T01:24:57;1.58;;;0.70;;
73150;SDS011;61354;50.758;6.106;2023-11-19T01:27:23;0.82;;;0.68;;
73150;SDS011;61354;50.758;6.106;2023-11-19T01:29:49;2.05;;;0.80;;
73150;SDS011;61354;50.758;6.106;2023-11-19T01:32:15;3.63;;;0.65;;
73150;SDS011;61354;50.758;6.106;2023-11-19T01:34:41;3.55;;;1.20;;
73150;SDS011;61354;50.758;6.106;2023-11-19T01:37:06;0.88;;;0.70;;
73150;SDS011;61354;50.758;6.106;2023-11-19T01:39:34;2.58;;;0.90;;
73150;SDS011;61354;50.758;6.106;2023-11-19T01:42:00;3.03;;;1.20;;
73150;SDS011;61354;50.758;6.106;2023-11-19T01:44:25;4.63;;;1.40;;
73150;SDS011;61354;50.758;6.106;2023-11-19T01:46:51;1.25;;;0.80;;
73150;SDS011;61354;50.758;6.106;2023-11-19T01:49:17;2.13;;;0.80;;
73150;SDS011;61354;50.758;6.106;2023-11-19T01:51:45;2.13;;;1.00;;
73150;SDS011;61354;50.758;6.106;2023-11-19T01:54:12;3.45;;;0.90;;
73150;SDS011;61354;50.758;6.106;2023-11-19T01:56:40;4.07;;;1.00;;
73150;SDS011;61354;50.758;6.106;2023-11-19T01:59:07;1.83;;;0.90;;
73150;SDS011;61354;50.758;6.106;2023-11-19T02:01:34;3.67;;;1.20;;
73150;SDS011;61354;50.758;6.106;2023-11-19T02:04:05;2.78;;;1.00;;
73150;SDS011;61354;50.758;6.106;2023-11-19T02:06:32;4.10;;;1.10;;
73150;SDS011;61354;50.758;6.106;2023-11-19T02:08:59;2.10;;;0.98;;
73150;SDS011;61354;50.758;6.106;2023-11-19T02:11:26;2.67;;;1.08;;
73150;SDS011;61354;50.758;6.106;2023-11-19T02:13:55;3.53;;;1.08;;
73150;SDS011;61354;50.758;6.106;2023-11-19T02:16:21;3.78;;;1.10;;
73150;SDS011;61354;50.758;6.106;2023-11-19T02:18:47;3.90;;;1.23;;
73150;SDS011;61354;50.758;6.106;2023-11-19T02:21:13;4.40;;;1.17;;
73150;SDS011;61354;50.758;6.106;2023-11-19T02:23:40;2.67;;;0.95;;
73150;SDS011;61354;50.758;6.106;2023-11-19T02:28:35;1.33;;;0.82;;
73150;SDS011;61354;50.758;6.106;2023-11-19T02:31:02;2.20;;;1.00;;
73150;SDS011;61354;50.758;6.106;2023-11-19T02:33:30;4.50;;;1.30;;
73150;SDS011;61354;50.758;6.106;2023-11-19T02:35:55;3.45;;;1.00;;
73150;SDS011;61354;50.758;6.106;2023-11-19T02:38:21;3.10;;;1.30;;
73150;SDS011;61354;50.758;6.106;2023-11-19T02:40:47;6.00;;;1.40;;
73150;SDS011;61354;50.758;6.106;2023-11-19T02:43:14;4.03;;;1.30;;
73150;SDS011;61354;50.758;6.106;2023-11-19T02:45:40;3.53;;;1.10;;
73150;SDS011;61354;50.758;6.106;2023-11-19T02:48:05;4.05;;;1.13;;
73150;SDS011;61354;50.758;6.106;2023-11-19T02:50:31;5.10;;;1.33;;
73150;SDS011;61354;50.758;6.106;2023-11-19T02:52:57;3.60;;;1.30;;
73150;SDS011;61354;50.758;6.106;2023-11-19T02:55:23;3.80;;;1.10;;
73150;SDS011;61354;50.758;6.106;2023-11-19T02:57:50;2.85;;;1.20;;
73150;SDS011;61354;50.758;6.106;2023-11-19T03:00:19;4.82;;;1.48;;
73150;SDS011;61354;50.758;6.106;2023-11-19T03:02:50;3.55;;;0.80;;
73150;SDS011;61354;50.758;6.106;2023-11-19T03:05:25;4.40;;;1.10;;
73150;SDS011;61354;50.758;6.106;2023-11-19T03:07:52;3.40;;;1.00;;
73150;SDS011;61354;50.758;6.106;2023-11-19T03:10:18;4.53;;;1.13;;
73150;SDS011;61354;50.758;6.106;2023-11-19T03:12:44;2.83;;;1.00;;
73150;SDS011;61354;50.758;6.106;2023-11-19T03:15:11;2.90;;;1.00;;
73150;SDS011;61354;50.758;6.106;2023-11-19T03:17:40;6.82;;;1.20;;
73150;SDS011;61354;50.758;6.106;2023-11-19T03:20:07;4.53;;;1.75;;
73150;SDS011;61354;50.758;6.106;2023-11-19T03:22:42;4.25;;;1.33;;
73150;SDS011;61354;50.758;6.106;2023-11-19T03:25:09;4.50;;;1.38;;
73150;SDS011;61354;50.758;6.106;2023-11-19T03:27:38;4.68;;;1.42;;
73150;SDS011;61354;50.758;6.106;2023-11-19T03:30:08;6.07;;;1.77;;
73150;SDS011;61354;50.758;6.106;2023-11-19T03:32:37;4.28;;;1.27;;
73150;SDS011;61354;50.758;6.106;2023-11-19T03:35:04;6.10;;;1.60;;
73150;SDS011;61354;50.758;6.106;2023-11-19T03:37:32;4.57;;;1.23;;
73150;SDS011;61354;50.758;6.106;2023-11-19T03:39:58;3.95;;;1.17;;
73150;SDS011;61354;50.758;6.106;2023-11-19T03:42:25;2.83;;;1.08;;
73150;SDS011;61354;50.758;6.106;2023-11-19T03:44:52;4.43;;;1.65;;
73150;SDS011;61354;50.758;6.106;2023-11-19T03:47:18;4.53;;;2.00;;
73150;SDS011;61354;50.758;6.106;2023-11-19T03:49:48;3.40;;;1.92;;
73150;SDS011;61354;50.758;6.106;2023-11-19T03:52:14;4.78;;;1.55;;
73150;SDS011;61354;50.758;6.106;2023-11-19T03:54:40;2.67;;;1.10;;
73150;SDS011;61354;50.758;6.106;2023-11-19T03:57:05;4.22;;;1.23;;
73150;SDS011;61354;50.758;6.106;2023-11-19T03:59:31;5.05;;;1.10;;
73150;SDS011;61354;50.758;6.106;2023-11-19T04:01:57;4.40;;;1.40;;
73150;SDS011;61354;50.758;6.106;2023-11-19T04:04:26;4.10;;;1.17;;
73150;SDS011;61354;50.758;6.106;2023-11-19T04:06:52;5.30;;;1.52;;
73150;SDS011;61354;50.758;6.106;2023-11-19T04:09:18;4.57;;;1.50;;
73150;SDS011;61354;50.758;6.106;2023-11-19T04:11:44;7.93;;;1.33;;
73150;SDS011;61354;50.758;6.106;2023-11-19T04:14:12;7.50;;;1.60;;
73150;SDS011;61354;50.758;6.106;2023-11-19T04:16:38;10.27;;;2.47;;
73150;SDS011;61354;50.758;6.106;2023-11-19T04:19:04;6.18;;;1.75;;
73150;SDS011;61354;50.758;6.106;2023-11-19T04:21:30;3.50;;;1.13;;
73150;SDS011;61354;50.758;6.106;2023-11-19T04:23:56;5.60;;;1.63;;
73150;SDS011;61354;50.758;6.106;2023-11-19T04:26:22;5.93;;;1.45;;
73150;SDS011;61354;50.758;6.106;2023-11-19T04:28:47;9.93;;;1.77;;
73150;SDS011;61354;50.758;6.106;2023-11-19T04:31:14;3.97;;;1.38;;
73150;SDS011;61354;50.758;6.106;2023-11-19T04:33:41;5.82;;;1.52;;
73150;SDS011;61354;50.758;6.106;2023-11-19T04:36:09;4.88;;;1.23;;
73150;SDS011;61354;50.758;6.106;2023-11-19T04:38:35;4.78;;;1.25;;
73150;SDS011;61354;50.758;6.106;2023-11-19T04:41:01;6.10;;;1.77;;
73150;SDS011;61354;50.758;6.106;2023-11-19T04:43:26;5.72;;;1.30;;
73150;SDS011;61354;50.758;6.106;2023-11-19T04:45:52;4.50;;;1.02;;
73150;SDS011;61354;50.758;6.106;2023-11-19T04:48:20;8.38;;;1.50;;
73150;SDS011;61354;50.758;6.106;2023-11-19T04:50:46;7.38;;;1.67;;
73150;SDS011;61354;50.758;6.106;2023-11-19T04:53:12;5.35;;;1.27;;
73150;SDS011;61354;50.758;6.106;2023-11-19T04:55:37;6.78;;;1.45;;
73150;SDS011;61354;50.758;6.106;2023-11-19T04:58:03;7.13;;;1.88;;
73150;SDS011;61354;50.758;6.106;2023-11-19T05:00:28;7.43;;;1.38;;
73150;SDS011;61354;50.758;6.106;2023-11-19T05:02:54;4.60;;;1.35;;
73150;SDS011;61354;50.758;6.106;2023-11-19T05:05:20;7.57;;;1.52;;
73150;SDS011;61354;50.758;6.106;2023-11-19T05:07:46;7.65;;;1.65;;
73150;SDS011;61354;50.758;6.106;2023-11-19T05:10:11;8.18;;;2.20;;
73150;SDS011;61354;50.758;6.106;2023-11-19T05:12:37;7.10;;;1.45;;
73150;SDS011;61354;50.758;6.106;2023-11-19T05:15:04;7.40;;;1.70;;
73150;SDS011;61354;50.758;6.106;2023-11-19T05:17:30;9.05;;;2.28;;
73150;SDS011;61354;50.758;6.106;2023-11-19T05:19:55;6.75;;;1.27;;
73150;SDS011;61354;50.758;6.106;2023-11-19T05:22:21;8.00;;;1.70;;
73150;SDS011;61354;50.758;6.106;2023-11-19T05:24:47;8.18;;;1.70;;
73150;SDS011;61354;50.758;6.106;2023-11-19T05:27:13;5.47;;;1.48;;
73150;SDS011;61354;50.758;6.106;2023-11-19T05:29:39;6.38;;;1.55;;
73150;SDS011;61354;50.758;6.106;2023-11-19T05:32:06;7.68;;;1.45;;
73150;SDS011;61354;50.758;6.106;2023-11-19T05:34:32;7.80;;;1.55;;
73150;SDS011;61354;50.758;6.106;2023-11-19T05:36:57;8.27;;;1.70;;
73150;SDS011;61354;50.758;6.106;2023-11-19T05:39:23;8.93;;;1.95;;
73150;SDS011;61354;50.758;6.106;2023-11-19T05:41:49;7.03;;;2.00;;
73150;SDS011;61354;50.758;6.106;2023-11-19T05:44:15;6.07;;;1.52;;
73150;SDS011;61354;50.758;6.106;2023-11-19T05:46:41;7.13;;;1.90;;
73150;SDS011;61354;50.758;6.106;2023-11-19T05:49:08;9.57;;;1.60;;
73150;SDS011;61354;50.758;6.106;2023-11-19T05:51:37;3.45;;;1.40;;
73150;SDS011;61354;50.758;6.106;2023-11-19T05:54:04;5.30;;;1.65;;
73150;SDS011;61354;50.758;6.106;2023-11-19T05:56:35;9.43;;;1.45;;
73150;SDS011;61354;50.758;6.106;2023-11-19T05:59:01;5.68;;;1.38;;
73150;SDS011;61354;50.758;6.106;2023-11-19T06:01:29;5.85;;;1.70;;
73150;SDS011;61354;50.758;6.106;2023-11-19T06:03:55;10.25;;;2.47;;
73150;SDS011;61354;50.758;6.106;2023-11-19T06:06:20;6.93;;;1.45;;
73150;SDS011;61354;50.758;6.106;2023-11-19T06:08:46;4.70;;;1.48;;
73150;SDS011;61354;50.758;6.106;2023-11-19T06:11:12;4.30;;;1.45;;
73150;SDS011;61354;50.758;6.106;2023-11-19T06:13:43;7.43;;;1.80;;
73150;SDS011;61354;50.758;6.106;2023-11-19T06:16:10;5.13;;;1.45;;
73150;SDS011;61354;50.758;6.106;2023-11-19T06:18:38;8.60;;;2.08;;
73150;SDS011;61354;50.758;6.106;2023-11-19T06:21:04;7.05;;;1.60;;
73150;SDS011;61354;50.758;6.106;2023-11-19T06:23:30;7.97;;;2.00;;
73150;SDS011;61354;50.758;6.106;2023-11-19T06:25:56;9.93;;;2.00;;
73150;SDS011;61354;50.758;6.106;2023-11-19T06:28:22;9.40;;;1.80;;
73150;SDS011;61354;50.758;6.106;2023-11-19T06:30:48;7.93;;;2.22;;
73150;SDS011;61354;50.758;6.106;2023-11-19T06:33:13;10.80;;;1.85;;
73150;SDS011;61354;50.758;6.106;2023-11-19T06:35:39;11.35;;;2.22;;
73150;SDS011;61354;50.758;6.106;2023-11-19T06:38:05;10.73;;;1.92;;
73150;SDS011;61354;50.758;6.106;2023-11-19T06:40:31;6.60;;;1.90;;
73150;SDS011;61354;50.758;6.106;2023-11-19T06:42:57;5.93;;;1.85;;
73150;SDS011;61354;50.758;6.106;2023-11-19T06:45:23;8.13;;;1.75;;
73150;SDS011;61354;50.758;6.106;2023-11-19T06:47:48;5.35;;;1.75;;
73150;SDS011;61354;50.758;6.106;2023-11-19T06:50:14;9.18;;;2.33;;
73150;SDS011;61354;50.758;6.106;2023-11-19T06:52:40;4.70;;;1.55;;
73150;SDS011;61354;50.758;6.106;2023-11-19T06:55:06;6.57;;;1.55;;
73150;SDS011;61354;50.758;6.106;2023-11-19T06:57:32;7.03;;;1.77;;
73150;SDS011;61354;50.758;6.106;2023-11-19T06:59:58;8.88;;;2.22;;
73150;SDS011;61354;50.758;6.106;2023-11-19T07:02:24;8.45;;;1.65;;
73150;SDS011;61354;50.758;6.106;2023-11-19T07:04:50;9.85;;;2.08;;
73150;SDS011;61354;50.758;6.106;2023-11-19T07:07:16;9.98;;;2.45;;
73150;SDS011;61354;50.758;6.106;2023-11-19T07:09:41;4.22;;;1.25;;
73150;SDS011;61354;50.758;6.106;2023-11-19T07:12:08;8.73;;;1.75;;
73150;SDS011;61354;50.758;6.106;2023-11-19T07:14:34;8.80;;;1.73;;
73150;SDS011;61354;50.758;6.106;2023-11-19T07:16:59;6.47;;;1.52;;
73150;SDS011;61354;50.758;6.106;2023-11-19T07:19:25;8.90;;;1.98;;
73150;SDS011;61354;50.758;6.106;2023-11-19T07:21:51;6.20;;;1.48;;
73150;SDS011;61354;50.758;6.106;2023-11-19T07:24:19;10.80;;;2.38;;
73150;SDS011;61354;50.758;6.106;2023-11-19T07:26:46;4.40;;;1.30;;
73150;SDS011;61354;50.758;6.106;2023-11-19T07:29:14;7.13;;;1.88;;
73150;SDS011;61354;50.758;6.106;2023-11-19T07:31:42;6.97;;;1.80;;
73150;SDS011;61354;50.758;6.106;2023-11-19T07:34:09;14.80;;;2.25;;
73150;SDS011;61354;50.758;6.106;2023-11-19T07:36:36;10.75;;;2.33;;
73150;SDS011;61354;50.758;6.106;2023-11-19T07:39:03;8.27;;;1.67;;
73150;SDS011;61354;50.758;6.106;2023-11-19T07:41:30;13.98;;;1.95;;
73150;SDS011;61354;50.758;6.106;2023-11-19T07:43:56;12.93;;;2.20;;
73150;SDS011;61354;50.758;6.106;2023-11-19T07:46:22;7.30;;;2.17;;
73150;SDS011;61354;50.758;6.106;2023-11-19T07:48:47;10.75;;;1.52;;
73150;SDS011;61354;50.758;6.106;2023-11-19T07:51:13;10.57;;;2.15;;
73150;SDS011;61354;50.758;6.106;2023-11-19T07:53:40;8.90;;;1.58;;
73150;SDS011;61354;50.758;6.106;2023-11-19T07:56:06;10.77;;;1.45;;
73150;SDS011;61354;50.758;6.106;2023-11-19T07:58:35;7.28;;;2.40;;
73150;SDS011;61354;50.758;6.106;2023-11-19T08:01:01;14.27;;;2.30;;
73150;SDS011;61354;50.758;6.106;2023-11-19T08:03:28;7.43;;;2.08;;
73150;SDS011;61354;50.758;6.106;2023-11-19T08:05:57;8.95;;;1.85;;
73150;SDS011;61354;50.758;6.106;2023-11-19T08:08:23;6.80;;;1.70;;
73150;SDS011;61354;50.758;6.106;2023-11-19T08:10:49;9.50;;;2.35;;
73150;SDS011;61354;50.758;6.106;2023-11-19T08:13:17;7.00;;;2.28;;
73150;SDS011;61354;50.758;6.106;2023-11-19T08:15:43;10.55;;;1.70;;
73150;SDS011;61354;50.758;6.106;2023-11-19T08:18:08;8.75;;;2.00;;
73150;SDS011;61354;50.758;6.106;2023-11-19T08:20:34;7.20;;;1.60;;
73150;SDS011;61354;50.758;6.106;2023-11-19T08:22:59;6.05;;;1.85;;
73150;SDS011;61354;50.758;6.106;2023-11-19T08:25:25;6.45;;;1.63;;
73150;SDS011;61354;50.758;6.106;2023-11-19T08:27:51;11.07;;;1.95;;
73150;SDS011;61354;50.758;6.106;2023-11-19T08:30:16;11.68;;;2.05;;
73150;SDS011;61354;50.758;6.106;2023-11-19T08:32:42;12.35;;;2.22;;
73150;SDS011;61354;50.758;6.106;2023-11-19T08:35:07;8.93;;;1.85;;
73150;SDS011;61354;50.758;6.106;2023-11-19T08:37:34;11.93;;;2.40;;
73150;SDS011;61354;50.758;6.106;2023-11-19T08:40:01;11.00;;;2.78;;
73150;SDS011;61354;50.758;6.106;2023-11-19T08:42:29;10.45;;;2.72;;
73150;SDS011;61354;50.758;6.106;2023-11-19T08:44:54;10.48;;;2.00;;
73150;SDS011;61354;50.758;6.106;2023-11-19T08:47:20;8.88;;;1.98;;
73150;SDS011;61354;50.758;6.106;2023-11-19T08:49:48;8.77;;;1.83;;
73150;SDS011;61354;50.758;6.106;2023-11-19T08:52:16;9.52;;;1.60;;
73150;SDS011;61354;50.758;6.106;2023-11-19T08:54:42;9.40;;;2.50;;
73150;SDS011;61354;50.758;6.106;2023-11-19T08:57:08;8.50;;;1.77;;
73150;SDS011;61354;50.758;6.106;2023-11-19T08:59:34;9.05;;;1.90;;
73150;SDS011;61354;50.758;6.106;2023-11-19T09:02:00;7.68;;;1.48;;
73150;SDS011;61354;50.758;6.106;2023-11-19T09:04:27;10.85;;;2.00;;
73150;SDS011;61354;50.758;6.106;2023-11-19T09:06:52;5.65;;;1.48;;
73150;SDS011;61354;50.758;6.106;2023-11-19T09:09:18;8.02;;;1.88;;
73150;SDS011;61354;50.758;6.106;2023-11-19T09:11:44;9.52;;;2.33;;
73150;SDS011;61354;50.758;6.106;2023-11-19T09:14:09;12.32;;;2.30;;
73150;SDS011;61354;50.758;6.106;2023-11-19T09:16:35;7.85;;;1.75;;
73150;SDS011;61354;50.758;6.106;2023-11-19T09:19:01;7.20;;;1.95;;
73150;SDS011;61354;50.758;6.106;2023-11-19T09:21:27;8.07;;;1.80;;
73150;SDS011;61354;50.758;6.106;2023-11-19T09:23:55;8.50;;;2.17;;
73150;SDS011;61354;50.758;6.106;2023-11-19T09:26:20;13.07;;;1.98;;
73150;SDS011;61354;50.758;6.106;2023-11-19T09:28:46;8.93;;;2.00;;
73150;SDS011;61354;50.758;6.106;2023-11-19T09:31:12;9.50;;;2.65;;
73150;SDS011;61354;50.758;6.106;2023-11-19T09:33:39;8.13;;;1.77;;
73150;SDS011;61354;50.758;6.106;2023-11-19T09:36:04;8.43;;;1.60;;
73150;SDS011;61354;50.758;6.106;2023-11-19T09:38:31;10.70;;;1.85;;
73150;SDS011;61354;50.758;6.106;2023-11-19T09:40:58;9.02;;;2.00;;
73150;SDS011;61354;50.758;6.106;2023-11-19T09:43:25;7.43;;;1.90;;
73150;SDS011;61354;50.758;6.106;2023-11-19T09:45:53;8.10;;;1.70;;
73150;SDS011;61354;50.758;6.106;2023-11-19T09:48:21;7.97;;;1.83;;
73150;SDS011;61354;50.758;6.106;2023-11-19T09:50:50;9.02;;;1.65;;
73150;SDS011;61354;50.758;6.106;2023-11-19T09:53:17;6.68;;;1.50;;
73150;SDS011;61354;50.758;6.106;2023-11-19T09:55:42;7.65;;;2.03;;
73150;SDS011;61354;50.758;6.106;2023-11-19T09:58:09;8.07;;;1.50;;
73150;SDS011;61354;50.758;6.106;2023-11-19T10:00:37;6.15;;;1.40;;
73150;SDS011;61354;50.758;6.106;2023-11-19T10:03:03;7.85;;;2.15;;
73150;SDS011;61354;50.758;6.106;2023-11-19T10:05:30;9.00;;;2.33;;
73150;SDS011;61354;50.758;6.106;2023-11-19T10:07:56;9.25;;;1.77;;
73150;SDS011;61354;50.758;6.106;2023-11-19T10:10:21;7.63;;;1.67;;
73150;SDS011;61354;50.758;6.106;2023-11-19T10:12:50;12.57;;;1.70;;
73150;SDS011;61354;50.758;6.106;2023-11-19T10:15:23;10.57;;;2.30;;
73150;SDS011;61354;50.758;6.106;2023-11-19T10:17:56;7.78;;;2.08;;
73150;SDS011;61354;50.758;6.106;2023-11-19T10:20:22;9.20;;;2.38;;
73150;SDS011;61354;50.758;6.106;2023-11-19T10:22:48;7.65;;;1.73;;
73150;SDS011;61354;50.758;6.106;2023-11-19T10:25:27;8.98;;;1.60;;
73150;SDS011;61354;50.758;6.106;2023-11-19T10:27:54;8.20;;;2.10;;
73150;SDS011;61354;50.758;6.106;2023-11-19T10:30:21;7.80;;;1.50;;
73150;SDS011;61354;50.758;6.106;2023-11-19T10:38:20;10.88;;;2.22;;
73150;SDS011;61354;50.758;6.106;2023-11-19T10:40:47;6.40;;;1.90;;
73150;SDS011;61354;50.758;6.106;2023-11-19T10:43:13;11.25;;;1.95;;
73150;SDS011;61354;50.758;6.106;2023-11-19T10:45:39;10.77;;;2.35;;
73150;SDS011;61354;50.758;6.106;2023-11-19T10:48:06;5.78;;;1.55;;
73150;SDS011;61354;50.758;6.106;2023-11-19T10:50:38;5.47;;;1.33;;
73150;SDS011;61354;50.758;6.106;2023-11-19T10:53:05;7.45;;;1.67;;
73150;SDS011;61354;50.758;6.106;2023-11-19T10:55:35;6.68;;;1.70;;
73150;SDS011;61354;50.758;6.106;2023-11-19T10:58:07;12.52;;;2.35;;
73150;SDS011;61354;50.758;6.106;2023-11-19T11:00:47;8.50;;;2.10;;
73150;SDS011;61354;50.758;6.106;2023-11-19T11:03:17;8.45;;;2.13;;
73150;SDS011;61354;50.758;6.106;2023-11-19T11:05:46;9.10;;;2.28;;
73150;SDS011;61354;50.758;6.106;2023-11-19T11:08:13;9.77;;;2.20;;
73150;SDS011;61354;50.758;6.106;2023-11-19T11:11:00;6.88;;;1.40;;
73150;SDS011;61354;50.758;6.106;2023-11-19T11:13:25;8.98;;;2.17;;
73150;SDS011;61354;50.758;6.106;2023-11-19T11:15:56;7.25;;;1.50;;
73150;SDS011;61354;50.758;6.106;2023-11-19T11:18:25;9.82;;;1.83;;
73150;SDS011;61354;50.758;6.106;2023-11-19T11:20:52;11.45;;;1.85;;
73150;SDS011;61354;50.758;6.106;2023-11-19T11:39:33;8.98;;;1.80;;
73150;SDS011;61354;50.758;6.106;2023-11-19T11:50:09;6.38;;;1.90;;
73150;SDS011;61354;50.758;6.106;2023-11-19T11:55:26;12.43;;;2.42;;
73150;SDS011;61354;50.758;6.106;2023-11-19T11:58:02;7.93;;;1.52;;
73150;SDS011;61354;50.758;6.106;2023-11-19T12:00:36;7.72;;;1.90;;
73150;SDS011;61354;50.758;6.106;2023-11-19T12:03:04;6.22;;;1.45;;
73150;SDS011;61354;50.758;6.106;2023-11-19T12:05:32;9.45;;;2.35;;
73150;SDS011;61354;50.758;6.106;2023-11-19T12:08:05;6.22;;;1.70;;
73150;SDS011;61354;50.758;6.106;2023-11-19T12:10:36;8.57;;;1.80;;
73150;SDS011;61354;50.758;6.106;2023-11-19T12:13:05;7.63;;;1.83;;
73150;SDS011;61354;50.758;6.106;2023-11-19T12:15:32;8.05;;;1.70;;
73150;SDS011;61354;50.758;6.106;2023-11-19T12:17:58;7.85;;;1.65;;
73150;SDS011;61354;50.758;6.106;2023-11-19T12:20:24;8.90;;;1.80;;
73150;SDS011;61354;50.758;6.106;2023-11-19T12:22:51;5.30;;;1.92;;
73150;SDS011;61354;50.758;6.106;2023-11-19T12:25:19;12.95;;;2.60;;
73150;SDS011;61354;50.758;6.106;2023-11-19T12:27:52;9.63;;;1.83;;
73150;SDS011;61354;50.758;6.106;2023-11-19T12:30:24;9.60;;;1.92;;
73150;SDS011;61354;50.758;6.106;2023-11-19T12:32:52;8.38;;;1.90;;
73150;SDS011;61354;50.758;6.106;2023-11-19T12:35:21;8.25;;;1.88;;
73150;SDS011;61354;50.758;6.106;2023-11-19T12:37:50;7.65;;;1.80;;
73150;SDS011;61354;50.758;6.106;2023-11-19T12:40:24;10.98;;;2.63;;
73150;SDS011;61354;50.758;6.106;2023-11-19T12:42:51;8.45;;;1.63;;
73150;SDS011;61354;50.758;6.106;2023-11-19T12:45:18;5.75;;;1.55;;
73150;SDS011;61354;50.758;6.106;2023-11-19T12:47:45;5.80;;;1.60;;
73150;SDS011;61354;50.758;6.106;2023-11-19T12:50:14;9.00;;;1.65;;
73150;SDS011;61354;50.758;6.106;2023-11-19T12:52:42;8.00;;;1.60;;
73150;SDS011;61354;50.758;6.106;2023-11-19T12:55:24;10.63;;;2.20;;
73150;SDS011;61354;50.758;6.106;2023-11-19T12:57:51;7.05;;;1.40;;
73150;SDS011;61354;50.758;6.106;2023-11-19T13:00:20;7.85;;;1.90;;
73150;SDS011;61354;50.758;6.106;2023-11-19T13:02:48;11.32;;;2.22;;
73150;SDS011;61354;50.758;6.106;2023-11-19T13:07:57;9.23;;;2.08;;
73150;SDS011;61354;50.758;6.106;2023-11-19T13:10:53;4.65;;;1.70;;
73150;SDS011;61354;50.758;6.106;2023-11-19T13:13:19;9.63;;;2.35;;
73150;SDS011;61354;50.758;6.106;2023-11-19T13:15:45;4.85;;;1.45;;
73150;SDS011;61354;50.758;6.106;2023-11-19T13:18:11;6.88;;;1.60;;
73150;SDS011;61354;50.758;6.106;2023-11-19T13:20:37;7.90;;;1.60;;
73150;SDS011;61354;50.758;6.106;2023-11-19T13:23:04;10.43;;;2.17;;
73150;SDS011;61354;50.758;6.106;2023-11-19T13:25:31;8.30;;;1.80;;
73150;SDS011;61354;50.758;6.106;2023-11-19T13:27:57;9.45;;;1.73;;
73150;SDS011;61354;50.758;6.106;2023-11-19T13:30:24;5.82;;;2.03;;
73150;SDS011;61354;50.758;6.106;2023-11-19T13:32:51;7.63;;;1.65;;
73150;SDS011;61354;50.758;6.106;2023-11-19T13:35:17;6.78;;;2.20;;
73150;SDS011;61354;50.758;6.106;2023-11-19T13:37:44;6.43;;;1.48;;
73150;SDS011;61354;50.758;6.106;2023-11-19T13:40:10;8.02;;;1.77;;
73150;SDS011;61354;50.758;6.106;2023-11-19T13:42:39;8.23;;;1.27;;
73150;SDS011;61354;50.758;6.106;2023-11-19T13:45:08;4.93;;;1.00;;
73150;SDS011;61354;50.758;6.106;2023-11-19T13:47:40;6.45;;;1.40;;
73150;SDS011;61354;50.758;6.106;2023-11-19T13:50:11;6.63;;;1.67;;
73150;SDS011;61354;50.758;6.106;2023-11-19T13:52:43;4.90;;;1.77;;
73150;SDS011;61354;50.758;6.106;2023-11-19T13:55:11;7.68;;;2.17;;
73150;SDS011;61354;50.758;6.106;2023-11-19T13:57:40;6.35;;;1.65;;
73150;SDS011;61354;50.758;6.106;2023-11-19T14:00:11;5.95;;;1.33;;
73150;SDS011;61354;50.758;6.106;2023-11-19T14:02:42;11.63;;;3.03;;
73150;SDS011;61354;50.758;6.106;2023-11-19T14:05:08;4.90;;;1.23;;
73150;SDS011;61354;50.758;6.106;2023-11-19T14:07:36;9.98;;;2.00;;
73150;SDS011;61354;50.758;6.106;2023-11-19T14:10:02;7.65;;;1.17;;
73150;SDS011;61354;50.758;6.106;2023-11-19T14:12:28;8.48;;;2.53;;
73150;SDS011;61354;50.758;6.106;2023-11-19T14:14:53;6.97;;;1.42;;
73150;SDS011;61354;50.758;6.106;2023-11-19T14:17:20;6.25;;;1.42;;
73150;SDS011;61354;50.758;6.106;2023-11-19T14:19:45;4.82;;;1.40;;
73150;SDS011;61354;50.758;6.106;2023-11-19T14:22:11;9.68;;;1.80;;
73150;SDS011;61354;50.758;6.106;2023-11-19T14:24:37;5.55;;;1.60;;
73150;SDS011;61354;50.758;6.106;2023-11-19T14:27:03;7.40;;;1.50;;
73150;SDS011;61354;50.758;6.106;2023-11-19T14:29:29;3.92;;;1.13;;
73150;SDS011;61354;50.758;6.106;2023-11-19T14:31:55;9.48;;;1.52;;
73150;SDS011;61354;50.758;6.106;2023-11-19T14:34:21;8.73;;;1.65;;
73150;SDS011;61354;50.758;6.106;2023-11-19T14:36:47;5.68;;;1.50;;
73150;SDS011;61354;50.758;6.106;2023-11-19T14:39:13;6.07;;;1.55;;
73150;SDS011;61354;50.758;6.106;2023-11-19T14:41:39;6.75;;;1.95;;
73150;SDS011;61354;50.758;6.106;2023-11-19T14:44:05;5.90;;;1.92;;
73150;SDS011;61354;50.758;6.106;2023-11-19T14:46:30;10.68;;;2.33;;
73150;SDS011;61354;50.758;6.106;2023-11-19T14:48:56;8.10;;;1.73;;
73150;SDS011;61354;50.758;6.106;2023-11-19T14:51:22;6.30;;;1.85;;
73150;SDS011;61354;50.758;6.106;2023-11-19T14:53:48;5.65;;;1.45;;
73150;SDS011;61354;50.758;6.106;2023-11-19T14:56:13;10.68;;;2.60;;
73150;SDS011;61354;50.758;6.106;2023-11-19T14:58:39;5.32;;;1.88;;
73150;SDS011;61354;50.758;6.106;2023-11-19T15:01:05;6.78;;;1.23;;
73150;SDS011;61354;50.758;6.106;2023-11-19T15:03:31;8.05;;;2.47;;
73150;SDS011;61354;50.758;6.106;2023-11-19T15:05:57;6.25;;;1.48;;
73150;SDS011;61354;50.758;6.106;2023-11-19T15:08:23;6.30;;;1.98;;
73150;SDS011;61354;50.758;6.106;2023-11-19T15:10:48;12.40;;;2.50;;
73150;SDS011;61354;50.758;6.106;2023-11-19T15:13:15;7.20;;;1.63;;
73150;SDS011;61354;50.758;6.106;2023-11-19T15:15:40;7.88;;;1.70;;
73150;SDS011;61354;50.758;6.106;2023-11-19T15:18:07;7.72;;;1.85;;
73150;SDS011;61354;50.758;6.106;2023-11-19T15:20:33;8.18;;;1.40;;
73150;SDS011;61354;50.758;6.106;2023-11-19T15:22:58;6.93;;;2.05;;